Time,TemperatureF,DewpointF,PressureIn,WindDirection,WindDirectionDegrees,WindSpeedMPH,WindSpeedGustMPH,Humidity,HourlyPrecipIn,Conditions,Clouds,dailyrainin,SoftwareType,DateUTC
2013-04-24 00:00:00,51.0,19.0,30.12,North,360,6.0,7.0,28,0.00,CLR,,0.00,WeatherDisplay:10.37,2013-04-24 07:00:00,
2013-04-24 00:10:00,50.0,18.1,30.13,North,360,0.0,5.0,28,0.00,CLR,,0.00,WeatherDisplay:10.37,2013-04-24 07:10:00,
2013-04-24 00:20:00,50.0,15.5,30.13,North,360,1.0,2.0,25,0.00,CLR,,0.00,WeatherDisplay:10.37,2013-04-24 07:20:00,
2013-04-24 00:30:00,51.0,14.4,30.12,NW,322,2.0,6.0,23,0.00,CLR,,0.00,WeatherDisplay:10.37,2013-04-24 07:30:00,
2013-04-24 00:40:00,49.0,12.8,30.13,NW,315,0.0,3.0,23,0.00,CLR,,0.00,WeatherDisplay:10.37,2013-04-24 07:40:00,
2013-04-24 00:50:00,48.0,12.9,30.14,NW,315,0.0,0.0,24,0.00,CLR,,0.00,WeatherDisplay:10.37,2013-04-24 07:50:00,
2013-04-24 01:00:00,48.0,13.8,30.13,West,262,0.0,1.0,25,0.00,CLR,,0.00,WeatherDisplay:10.37,2013-04-24 08:00:00,
2013-04-24 01:10:00,47.0,12.9,30.14,WSW,247,0.0,0.0,25,0.00,CLR,,0.00,WeatherDisplay:10.37,2013-04-24 08:10:00,
2013-04-24 01:20:00,47.0,12.9,30.14,WSW,247,0.0,0.0,25,0.00,CLR,,0.00,WeatherDisplay:10.37,2013-04-24 08:20:00,
2013-04-24 01:30:00,47.0,12.9,30.14,West,275,3.0,6.0,25,0.00,CLR,,0.00,WeatherDisplay:10.37,2013-04-24 08:30:00,
2013-04-24 01:40:00,47.0,12.9,30.14,NW,315,3.0,5.0,25,0.00,CLR,,0.00,WeatherDisplay:10.37,2013-04-24 08:40:00,
2013-04-24 01:50:00,47.0,13.8,30.14,NW,315,0.0,2.0,26,0.00,CLR,,0.00,WeatherDisplay:10.37,2013-04-24 08:50:00,
2013-04-24 02:00:00,46.0,16.3,30.15,NW,315,0.0,4.0,30,0.00,CLR,,0.00,WeatherDisplay:10.37,2013-04-24 09:00:00,
2013-04-24 02:10:00,46.0,14.7,30.15,NW,315,0.0,4.0,28,0.00,CLR,,0.00,WeatherDisplay:10.37,2013-04-24 09:10:00,
2013-04-24 02:20:00,45.0,19.0,30.15,NNW,335,0.0,3.0,35,0.00,CLR,,0.00,WeatherDisplay:10.37,2013-04-24 09:20:00,
2013-04-24 02:30:00,46.0,14.7,30.15,NNW,337,0.0,2.0,28,0.00,CLR,,0.00,WeatherDisplay:10.37,2013-04-24 09:30:00,
2013-04-24 02:40:00,46.0,13.8,30.14,NNW,337,3.0,4.0,27,0.00,CLR,,0.00,WeatherDisplay:10.37,2013-04-24 09:40:00,
2013-04-24 02:50:00,47.0,15.5,30.14,NNW,337,0.0,3.0,28,0.00,CLR,,0.00,WeatherDisplay:10.37,2013-04-24 09:50:00,
2013-04-24 03:00:00,47.0,13.8,30.14,NNW,337,0.0,3.0,26,0.00,CLR,,0.00,WeatherDisplay:10.37,2013-04-24 10:00:00,
2013-04-24 03:10:00,46.0,13.8,30.15,NNW,337,0.0,3.0,27,0.00,CLR,,0.00,WeatherDisplay:10.37,2013-04-24 10:10:00,
2013-04-24 03:20:00,45.0,13.8,30.15,NNW,337,0.0,1.0,28,0.00,CLR,,0.00,WeatherDisplay:10.37,2013-04-24 10:20:00,
2013-04-24 03:30:00,44.0,24.0,30.16,NNE,16,3.0,5.0,45,0.00,CLR,,0.00,WeatherDisplay:10.37,2013-04-24 10:30:00,
2013-04-24 03:40:00,43.0,21.4,30.17,NNE,22,0.0,1.0,42,0.00,CLR,,0.00,WeatherDisplay:10.37,2013-04-24 10:40:00,
2013-04-24 03:50:00,42.0,21.7,30.17,NNE,23,1.0,6.0,44,0.00,CLR,,0.00,WeatherDisplay:10.37,2013-04-24 10:50:00,
2013-04-24 04:00:00,42.0,21.7,30.17,NE,45,1.0,6.0,44,0.00,CLR,,0.00,WeatherDisplay:10.37,2013-04-24 11:00:00,
2013-04-24 04:10:00,42.0,21.6,30.17,NE,45,1.0,3.0,44,0.00,CLR,,0.00,WeatherDisplay:10.37,2013-04-24 11:10:00,
2013-04-24 04:20:00,41.0,21.3,30.17,NE,45,0.0,3.0,45,0.00,CLR,,0.00,WeatherDisplay:10.37,2013-04-24 11:20:00,
2013-04-24 04:30:00,41.0,22.3,30.18,NE,45,0.0,1.0,47,0.00,CLR,,0.00,WeatherDisplay:10.37,2013-04-24 11:30:00,
2013-04-24 04:40:00,41.0,21.8,30.17,NE,45,0.0,0.0,46,0.00,CLR,,0.00,WeatherDisplay:10.37,2013-04-24 11:40:00,
2013-04-24 04:50:00,41.0,22.8,30.17,NE,45,0.0,0.0,48,0.00,CLR,,0.00,WeatherDisplay:10.37,2013-04-24 11:50:00,
2013-04-24 05:00:00,40.0,19.8,30.18,NE,45,0.0,0.0,44,0.00,CLR,,0.00,WeatherDisplay:10.37,2013-04-24 12:00:00,
2013-04-24 05:10:00,40.0,17.0,30.18,NE,45,0.0,0.0,39,0.00,CLR,,0.00,WeatherDisplay:10.37,2013-04-24 12:10:00,
2013-04-24 05:20:00,41.0,16.0,30.18,NE,45,0.0,0.0,36,0.00,CLR,,0.00,WeatherDisplay:10.37,2013-04-24 12:20:00,
2013-04-24 05:30:00,41.0,15.4,30.18,NE,45,0.0,0.0,35,0.00,CLR,,0.00,WeatherDisplay:10.37,2013-04-24 12:30:00,
2013-04-24 05:40:00,41.0,14.7,30.18,NE,45,0.0,0.0,34,0.00,CLR,,0.00,WeatherDisplay:10.37,2013-04-24 12:40:00,
2013-04-24 05:50:00,41.0,14.7,30.18,NE,45,0.0,0.0,34,0.00,CLR,,0.00,WeatherDisplay:10.37,2013-04-24 12:50:00,
2013-04-24 06:00:00,40.0,15.2,30.19,NE,45,1.0,3.0,36,0.00,CLR,,0.00,WeatherDisplay:10.37,2013-04-24 13:00:00,
2013-04-24 06:10:00,41.0,17.9,30.19,NE,45,1.0,3.0,39,0.00,CLR,,0.00,WeatherDisplay:10.37,2013-04-24 13:10:00,
2013-04-24 06:20:00,42.0,20.5,30.19,NE,45,0.0,3.0,42,0.00,CLR,,0.00,WeatherDisplay:10.37,2013-04-24 13:20:00,
2013-04-24 06:30:00,44.0,20.6,30.18,NE,45,1.0,3.0,39,0.00,CLR,,0.00,WeatherDisplay:10.37,2013-04-24 13:30:00,
2013-04-24 06:40:00,47.0,21.4,30.16,NE,45,0.0,2.0,36,0.00,CLR,,0.00,WeatherDisplay:10.37,2013-04-24 13:40:00,
2013-04-24 06:50:00,49.0,19.6,30.16,NE,45,0.0,0.0,31,0.00,CLR,,0.00,WeatherDisplay:10.37,2013-04-24 13:50:00,
2013-04-24 07:00:00,51.0,19.8,30.15,NE,45,0.0,1.0,29,0.00,CLR,,0.00,WeatherDisplay:10.37,2013-04-24 14:00:00,
2013-04-24 07:10:00,53.0,19.9,30.14,SW,214,3.0,4.0,27,0.00,CLR,,0.00,WeatherDisplay:10.37,2013-04-24 14:10:00,
2013-04-24 07:20:00,55.0,20.7,30.13,SW,225,0.0,3.0,26,0.00,CLR,,0.00,WeatherDisplay:10.37,2013-04-24 14:20:00,
2013-04-24 07:30:00,57.0,22.4,30.12,SW,225,0.0,4.0,26,0.00,CLR,,0.00,WeatherDisplay:10.37,2013-04-24 14:30:00,
2013-04-24 07:40:00,59.0,22.2,30.11,SSW,208,1.0,4.0,24,0.00,CLR,,0.00,WeatherDisplay:10.37,2013-04-24 14:40:00,
2013-04-24 07:50:00,61.0,22.9,30.11,South,187,1.0,5.0,23,0.00,CLR,,0.00,WeatherDisplay:10.37,2013-04-24 14:50:00,
2013-04-24 08:00:00,63.0,22.4,30.10,South,182,6.0,7.0,21,0.00,CLR,,0.00,WeatherDisplay:10.37,2013-04-24 15:00:00,
2013-04-24 08:10:00,65.0,22.9,30.09,South,191,2.0,9.0,20,0.00,CLR,,0.00,WeatherDisplay:10.37,2013-04-24 15:10:00,
2013-04-24 08:20:00,67.0,24.6,30.07,South,187,6.0,9.0,20,0.00,CLR,,0.00,WeatherDisplay:10.37,2013-04-24 15:20:00,
2013-04-24 08:30:00,69.0,23.7,30.07,SSE,167,3.0,8.0,18,0.00,CLR,,0.00,WeatherDisplay:10.37,2013-04-24 15:30:00,
2013-04-24 08:40:00,71.0,24.0,30.06,SE,140,3.0,7.0,17,0.00,CLR,,0.00,WeatherDisplay:10.37,2013-04-24 15:40:00,
2013-04-24 08:50:00,72.0,24.8,30.05,SSE,154,2.0,7.0,17,0.00,CLR,,0.00,WeatherDisplay:10.37,2013-04-24 15:50:00,
2013-04-24 09:00:00,74.0,24.9,30.04,SSE,152,1.0,9.0,16,0.00,CLR,,0.00,WeatherDisplay:10.37,2013-04-24 16:00:00,
2013-04-24 09:10:00,74.0,24.9,30.04,ESE,117,5.0,10.0,16,0.00,CLR,,0.00,WeatherDisplay:10.37,2013-04-24 16:10:00,
2013-04-24 09:20:00,75.0,25.7,30.04,SSE,165,2.0,8.0,16,0.00,CLR,,0.00,WeatherDisplay:10.37,2013-04-24 16:20:00,
2013-04-24 09:30:00,76.0,26.5,30.04,SSE,160,2.0,12.0,16,0.00,CLR,,0.00,WeatherDisplay:10.37,2013-04-24 16:30:00,
2013-04-24 09:40:00,76.0,25.0,30.04,SSE,151,5.0,13.0,15,0.00,CLR,,0.00,WeatherDisplay:10.37,2013-04-24 16:40:00,
2013-04-24 09:50:00,76.0,25.0,30.04,South,183,7.0,13.0,15,0.00,CLR,,0.00,WeatherDisplay:10.37,2013-04-24 16:50:00,
2013-04-24 10:00:00,77.0,25.8,30.03,SE,131,3.0,8.0,15,0.00,CLR,,0.00,WeatherDisplay:10.37,2013-04-24 17:00:00,
2013-04-24 10:10:00,77.0,24.1,30.03,SE,136,3.0,12.0,14,0.00,CLR,,0.00,WeatherDisplay:10.37,2013-04-24 17:10:00,
2013-04-24 10:20:00,78.0,23.1,30.03,SSE,167,6.0,12.0,13,0.00,CLR,,0.00,WeatherDisplay:10.37,2013-04-24 17:20:00,
2013-04-24 10:30:00,78.0,23.1,30.03,South,171,7.0,14.0,13,0.00,CLR,,0.00,WeatherDisplay:10.37,2013-04-24 17:30:00,
2013-04-24 10:40:00,78.0,23.1,30.02,SSE,167,9.0,14.0,13,0.00,CLR,,0.00,WeatherDisplay:10.37,2013-04-24 17:40:00,
2013-04-24 10:50:00,78.0,24.9,30.02,South,180,2.0,15.0,14,0.00,CLR,,0.00,WeatherDisplay:10.37,2013-04-24 17:50:00,
2013-04-24 11:00:00,78.0,24.9,30.02,SE,142,8.0,13.0,14,0.00,CLR,,0.00,WeatherDisplay:10.37,2013-04-24 18:00:00,
2013-04-24 11:10:00,79.0,23.9,30.01,South,177,1.0,10.0,13,0.00,CLR,,0.00,WeatherDisplay:10.37,2013-04-24 18:10:00,
2013-04-24 11:20:00,79.0,23.9,30.00,South,186,7.0,17.0,13,0.00,CLR,,0.00,WeatherDisplay:10.37,2013-04-24 18:20:00,
2013-04-24 11:30:00,81.0,25.5,29.99,SE,143,5.0,15.0,13,0.00,CLR,,0.00,WeatherDisplay:10.37,2013-04-24 18:30:00,
2013-04-24 11:40:00,80.0,24.7,30.00,SSW,196,6.0,14.0,13,0.00,CLR,,0.00,WeatherDisplay:10.37,2013-04-24 18:40:00,
2013-04-24 11:50:00,81.0,25.5,29.99,SE,144,6.0,20.0,13,0.00,CLR,,0.00,WeatherDisplay:10.37,2013-04-24 18:50:00,
2013-04-24 12:00:00,81.0,23.6,29.98,South,169,8.0,16.0,12,0.00,CLR,,0.00,WeatherDisplay:10.37,2013-04-24 19:00:00,
2013-04-24 12:10:00,82.0,24.4,29.98,South,171,7.0,12.0,12,0.00,CLR,,0.00,WeatherDisplay:10.37,2013-04-24 19:10:00,
2013-04-24 12:20:00,81.0,25.5,29.98,SSW,213,2.0,16.0,13,0.00,CLR,,0.00,WeatherDisplay:10.37,2013-04-24 19:20:00,
2013-04-24 12:30:00,82.0,24.4,29.97,South,186,7.0,13.0,12,0.00,CLR,,0.00,WeatherDisplay:10.37,2013-04-24 19:30:00,
2013-04-24 12:40:00,80.0,24.7,29.98,West,271,6.0,15.0,13,0.00,CLR,,0.00,WeatherDisplay:10.37,2013-04-24 19:40:00,
2013-04-24 12:50:00,82.0,24.4,29.96,WSW,256,6.0,12.0,12,0.00,CLR,,0.00,WeatherDisplay:10.37,2013-04-24 19:50:00,
2013-04-24 13:00:00,83.0,23.0,29.96,South,185,3.0,16.0,11,0.00,CLR,,0.00,WeatherDisplay:10.37,2013-04-24 20:00:00,
2013-04-24 13:10:00,84.0,21.5,29.94,South,189,12.0,17.0,10,0.00,CLR,,0.00,WeatherDisplay:10.37,2013-04-24 20:10:00,
2013-04-24 13:20:00,82.0,22.3,29.95,SSW,211,8.0,16.0,11,0.00,CLR,,0.00,WeatherDisplay:10.37,2013-04-24 20:20:00,
2013-04-24 13:30:00,83.0,18.3,29.95,SW,216,10.0,15.0,9,0.00,CLR,,0.00,WeatherDisplay:10.37,2013-04-24 20:30:00,
2013-04-24 13:40:00,83.0,18.3,29.95,SW,221,12.0,21.0,9,0.00,CLR,,0.00,WeatherDisplay:10.37,2013-04-24 20:40:00,
2013-04-24 13:50:00,83.0,18.3,29.95,SSW,201,9.0,20.0,9,0.00,CLR,,0.00,WeatherDisplay:10.37,2013-04-24 20:50:00,
2013-04-24 14:00:00,83.0,18.3,29.95,SSW,201,9.0,16.0,9,0.00,CLR,,0.00,WeatherDisplay:10.37,2013-04-24 21:00:00,
2013-04-24 14:10:00,83.0,18.3,29.94,SSW,211,8.0,15.0,9,0.00,CLR,,0.00,WeatherDisplay:10.37,2013-04-24 21:10:00,
2013-04-24 14:20:00,83.0,20.8,29.94,SW,231,13.0,17.0,10,0.00,CLR,,0.00,WeatherDisplay:10.37,2013-04-24 21:20:00,
2013-04-24 14:30:00,83.0,20.8,29.94,SSW,210,8.0,20.0,10,0.00,CLR,,0.00,WeatherDisplay:10.37,2013-04-24 21:30:00,
2013-04-24 14:40:00,84.0,19.1,29.93,SSW,211,12.0,18.0,9,0.00,CLR,,0.00,WeatherDisplay:10.37,2013-04-24 21:40:00,
2013-04-24 14:50:00,83.0,18.3,29.93,SW,215,12.0,17.0,9,0.00,CLR,,0.00,WeatherDisplay:10.37,2013-04-24 21:50:00,
2013-04-24 15:00:00,84.0,19.1,29.92,SSW,202,7.0,16.0,9,0.00,CLR,,0.00,WeatherDisplay:10.37,2013-04-24 22:00:00,
2013-04-24 15:10:00,83.0,18.3,29.93,West,259,6.0,16.0,9,0.00,CLR,,0.00,WeatherDisplay:10.37,2013-04-24 22:10:00,
2013-04-24 15:20:00,84.0,19.1,29.91,SW,232,7.0,14.0,9,0.00,CLR,,0.00,WeatherDisplay:10.37,2013-04-24 22:20:00,
2013-04-24 15:30:00,84.0,19.1,29.91,SW,219,9.0,15.0,9,0.00,CLR,,0.00,WeatherDisplay:10.37,2013-04-24 22:30:00,
2013-04-24 15:40:00,84.0,19.1,29.91,SW,220,6.0,16.0,9,0.00,CLR,,0.00,WeatherDisplay:10.37,2013-04-24 22:40:00,
2013-04-24 15:50:00,84.0,19.1,29.91,SSW,205,6.0,13.0,9,0.00,CLR,,0.00,WeatherDisplay:10.37,2013-04-24 22:50:00,
2013-04-24 16:00:00,85.0,19.8,29.90,SSW,199,6.0,15.0,9,0.00,CLR,,0.00,WeatherDisplay:10.37,2013-04-24 23:00:00,
2013-04-24 16:10:00,85.0,19.8,29.90,SSE,153,5.0,12.0,9,0.00,CLR,,0.00,WeatherDisplay:10.37,2013-04-24 23:10:00,
2013-04-24 16:20:00,85.0,19.9,29.89,SE,141,2.0,8.0,9,0.00,CLR,,0.00,WeatherDisplay:10.37,2013-04-24 23:20:00,
2013-04-24 16:30:00,85.0,19.8,29.90,South,185,9.0,12.0,9,0.00,CLR,,0.00,WeatherDisplay:10.37,2013-04-24 23:30:00,
2013-04-24 16:40:00,85.0,19.8,29.90,South,184,5.0,10.0,9,0.00,CLR,,0.00,WeatherDisplay:10.37,2013-04-24 23:40:00,
2013-04-24 16:50:00,85.0,19.8,29.90,South,173,3.0,13.0,9,0.00,CLR,,0.00,WeatherDisplay:10.37,2013-04-24 23:50:00,
2013-04-24 17:00:00,85.0,19.8,29.90,SSW,194,7.0,9.0,9,0.00,CLR,,0.00,WeatherDisplay:10.37,2013-04-25 00:00:00,
2013-04-24 17:10:00,84.0,19.1,29.91,SSW,204,6.0,10.0,9,0.00,CLR,,0.00,WeatherDisplay:10.37,2013-04-25 00:10:00,
2013-04-24 17:20:00,82.0,17.6,29.92,SW,218,8.0,13.0,9,0.00,CLR,,0.00,WeatherDisplay:10.37,2013-04-25 00:20:00,
2013-04-24 17:30:00,82.1,17.6,29.91,SSW,205,8.0,12.0,9,0.00,CLR,,0.00,WeatherDisplay:10.37,2013-04-25 00:30:00,
2013-04-24 17:40:00,81.0,16.8,29.92,SSW,203,8.0,12.0,9,0.00,CLR,,0.00,WeatherDisplay:10.37,2013-04-25 00:40:00,
2013-04-24 17:50:00,80.0,18.5,29.93,SSW,211,7.0,12.0,10,0.00,CLR,,0.00,WeatherDisplay:10.37,2013-04-25 00:50:00,
2013-04-24 18:00:00,79.0,15.3,29.93,SSW,212,5.0,12.0,9,0.00,CLR,,0.00,WeatherDisplay:10.37,2013-04-25 01:00:00,
2013-04-24 18:10:00,79.0,17.7,29.93,South,187,5.0,7.0,10,0.00,CLR,,0.00,WeatherDisplay:10.37,2013-04-25 01:10:00,
2013-04-24 18:20:00,78.0,17.0,29.94,SSW,198,6.0,8.0,10,0.00,CLR,,0.00,WeatherDisplay:10.37,2013-04-25 01:20:00,
2013-04-24 18:30:00,76.0,17.7,29.95,SW,218,6.0,7.0,11,0.00,CLR,,0.00,WeatherDisplay:10.37,2013-04-25 01:30:00,
2013-04-24 18:40:00,77.0,13.8,29.95,WSW,238,7.0,9.0,9,0.00,CLR,,0.00,WeatherDisplay:10.37,2013-04-25 01:40:00,
2013-04-24 18:50:00,77.0,13.8,29.96,WSW,237,7.0,12.0,9,0.00,CLR,,0.00,WeatherDisplay:10.37,2013-04-25 01:50:00,
2013-04-24 19:00:00,77.0,13.8,29.96,WSW,240,7.0,12.0,9,0.00,CLR,,0.00,WeatherDisplay:10.37,2013-04-25 02:00:00,
2013-04-24 19:10:00,76.0,13.0,29.97,WSW,245,9.0,13.0,9,0.00,CLR,,0.00,WeatherDisplay:10.37,2013-04-25 02:10:00,
2013-04-24 19:20:00,76.0,13.0,29.97,SW,236,8.0,13.0,9,0.00,CLR,,0.00,WeatherDisplay:10.37,2013-04-25 02:20:00,
2013-04-24 19:30:00,76.0,15.4,29.98,SW,225,7.0,12.0,10,0.00,CLR,,0.00,WeatherDisplay:10.37,2013-04-25 02:30:00,
2013-04-24 19:40:00,75.0,14.7,29.98,SW,230,6.0,10.0,10,0.00,CLR,,0.00,WeatherDisplay:10.37,2013-04-25 02:40:00,
2013-04-24 19:50:00,75.0,14.7,29.99,WSW,245,6.0,10.0,10,0.00,CLR,,0.00,WeatherDisplay:10.37,2013-04-25 02:50:00,
2013-04-24 20:00:00,75.0,14.7,30.01,WSW,240,9.0,15.0,10,0.00,CLR,,0.00,WeatherDisplay:10.37,2013-04-25 03:00:00,
2013-04-24 20:10:00,75.0,14.7,30.01,WSW,244,9.0,16.0,10,0.00,CLR,,0.00,WeatherDisplay:10.37,2013-04-25 03:10:00,
2013-04-24 20:20:00,75.0,14.7,29.99,West,271,7.0,12.0,10,0.00,CLR,,0.00,WeatherDisplay:10.37,2013-04-25 03:20:00,
2013-04-24 20:30:00,74.0,13.9,30.00,West,268,3.0,10.0,10,0.00,CLR,,0.00,WeatherDisplay:10.37,2013-04-25 03:30:00,
2013-04-24 20:40:00,73.0,15.3,30.01,West,270,0.0,3.0,11,0.00,CLR,,0.00,WeatherDisplay:10.37,2013-04-25 03:40:00,
2013-04-24 20:50:00,72.0,14.6,30.02,West,270,0.0,4.0,11,0.00,CLR,,0.00,WeatherDisplay:10.37,2013-04-25 03:50:00,
2013-04-24 21:00:00,71.0,13.8,30.04,WSW,239,1.0,7.0,11,0.00,CLR,,0.00,WeatherDisplay:10.37,2013-04-25 04:00:00,
2013-04-24 21:10:00,70.0,15.0,30.05,South,180,2.0,7.0,12,0.00,CLR,,0.00,WeatherDisplay:10.37,2013-04-25 04:10:00,
2013-04-24 21:20:00,70.0,16.8,30.06,South,173,0.0,2.0,13,0.00,CLR,,0.00,WeatherDisplay:10.37,2013-04-25 04:20:00,
2013-04-24 21:30:00,69.0,16.0,30.05,SSE,157,1.0,2.0,13,0.00,CLR,,0.00,WeatherDisplay:10.37,2013-04-25 04:30:00,
2013-04-24 21:40:00,68.1,15.3,30.04,East,98,7.0,9.0,13,0.00,CLR,,0.00,WeatherDisplay:10.37,2013-04-25 04:40:00,
2013-04-24 21:50:00,69.0,16.0,30.03,East,87,2.0,12.0,13,0.00,CLR,,0.00,WeatherDisplay:10.37,2013-04-25 04:50:00,
2013-04-24 22:00:00,68.0,15.3,30.05,ESE,117,0.0,3.0,13,0.00,CLR,,0.00,WeatherDisplay:10.37,2013-04-25 05:00:00,
2013-04-24 22:10:00,67.0,17.8,30.05,SE,135,1.0,3.0,15,0.00,CLR,,0.00,WeatherDisplay:10.37,2013-04-25 05:10:00,
2013-04-24 22:20:00,67.0,17.8,30.04,ESE,120,2.0,5.0,15,0.00,CLR,,0.00,WeatherDisplay:10.37,2013-04-25 05:20:00,
2013-04-24 22:30:00,67.0,16.2,30.04,ESE,116,1.0,5.0,14,0.00,CLR,,0.00,WeatherDisplay:10.37,2013-04-25 05:30:00,
2013-04-24 22:40:00,66.0,15.4,30.03,ESE,112,0.0,2.0,14,0.00,CLR,,0.00,WeatherDisplay:10.37,2013-04-25 05:40:00,
2013-04-24 22:50:00,66.0,17.0,30.03,ESE,112,0.0,3.0,15,0.00,CLR,,0.00,WeatherDisplay:10.37,2013-04-25 05:50:00,
2013-04-24 23:00:00,65.1,16.2,30.03,ESE,112,0.0,1.0,15,0.00,CLR,,0.00,WeatherDisplay:10.37,2013-04-25 06:00:00,
2013-04-24 23:10:00,65.0,16.2,30.03,ESE,112,0.0,2.0,15,0.00,CLR,,0.00,WeatherDisplay:10.37,2013-04-25 06:10:00,
2013-04-24 23:20:00,65.0,16.2,30.04,South,177,3.0,5.0,15,0.00,CLR,,0.00,WeatherDisplay:10.37,2013-04-25 06:20:00,
2013-04-24 23:30:00,65.0,17.7,30.05,SSW,193,6.0,7.0,16,0.00,CLR,,0.00,WeatherDisplay:10.37,2013-04-25 06:30:00,
2013-04-24 23:40:00,64.1,18.3,30.06,SSW,201,6.0,9.0,17,0.00,CLR,,0.00,WeatherDisplay:10.37,2013-04-25 06:40:00,
2013-04-24 23:50:00,65.0,19.1,30.06,SSW,193,6.0,7.0,17,0.00,CLR,,0.00,WeatherDisplay:10.37,2013-04-25 06:50:00,